createdAt,value
2024-05-09T00:03:09.235Z,24.60
2024-05-09T00:08:16.182Z,24.70
2024-05-09T00:13:21.600Z,24.70
2024-05-09T00:18:27.341Z,24.70
2024-05-09T00:23:33.315Z,24.70
2024-05-09T00:28:39.045Z,24.30
2024-05-09T00:33:44.575Z,23.90
2024-05-09T00:38:50.044Z,23.60
2024-05-09T00:43:55.310Z,23.50
2024-05-09T00:49:00.688Z,23.40
2024-05-09T00:54:07.170Z,23.50
2024-05-09T00:59:12.333Z,23.50
2024-05-09T01:04:18.480Z,23.60
2024-05-09T01:09:23.813Z,23.70
2024-05-09T01:14:29.466Z,23.80
2024-05-09T01:19:34.754Z,23.90
2024-05-09T01:24:41.213Z,23.90
2024-05-09T01:29:47.144Z,23.90
2024-05-09T01:34:54.400Z,23.90
2024-05-09T01:40:02.278Z,24.00
2024-05-09T01:45:09.137Z,24.00
2024-05-09T01:55:23.452Z,24.20
2024-05-09T02:00:38.197Z,24.40
2024-05-09T02:05:53.667Z,24.50
2024-05-09T02:11:00.401Z,24.80
2024-05-09T02:16:24.575Z,25.10
2024-05-09T02:27:21.192Z,26.80
2024-05-09T02:32:30.332Z,27.20
2024-05-09T02:37:39.165Z,27.40
2024-05-09T02:42:45.273Z,27.80
2024-05-09T02:47:51.965Z,28.40
2024-05-09T02:53:34.358Z,28.50
2024-05-09T03:11:34.748Z,30.20
2024-05-09T03:17:24.039Z,30.50
2024-05-09T03:29:06.852Z,30.40
2024-05-09T03:46:06.291Z,31.00
2024-05-09T03:57:48.365Z,29.20
2024-05-09T04:02:58.428Z,28.60
2024-05-09T04:08:04.336Z,28.10
2024-05-09T04:19:11.673Z,28.10
2024-05-09T04:24:35.166Z,28.30
2024-05-09T04:29:46.595Z,28.50
2024-05-09T04:36:22.606Z,28.60
2024-05-09T05:22:36.341Z,31.20
2024-05-09T06:26:58.067Z,41.30
2024-05-09T06:32:04.697Z,38.90
2024-05-09T06:37:13.958Z,36.30
2024-05-09T06:42:19.899Z,34.50
2024-05-09T06:47:26.309Z,33.60
2024-05-09T06:52:32.768Z,32.80
2024-05-09T06:57:40.639Z,32.60
2024-05-09T07:02:48.975Z,32.80
2024-05-09T07:07:54.731Z,33.00
2024-05-09T07:13:00.640Z,33.60
2024-05-09T07:18:20.600Z,33.40
2024-05-09T07:23:26.609Z,32.90
2024-05-09T07:34:22.767Z,32.30
2024-05-09T07:39:30.762Z,32.00
2024-05-09T07:44:37.590Z,31.50
2024-05-09T07:51:32.178Z,30.80
2024-05-09T07:55:10.174Z,29.80
2024-05-09T08:00:20.407Z,29.20
2024-05-09T08:05:32.591Z,29.00
2024-05-09T08:10:38.399Z,28.70
2024-05-09T08:15:45.328Z,28.20
2024-05-09T08:21:28.020Z,27.60
2024-05-09T08:26:35.000Z,26.90
2024-05-09T08:31:41.122Z,26.50
2024-05-09T08:36:46.802Z,26.10
2024-05-09T08:41:53.260Z,25.80
2024-05-09T08:46:58.910Z,25.60
2024-05-09T08:52:04.623Z,25.50
2024-05-09T08:57:11.176Z,25.50
2024-05-09T09:02:17.911Z,25.40
2024-05-09T09:07:25.226Z,25.50
2024-05-09T09:12:31.096Z,25.80
2024-05-09T09:17:38.238Z,26.40
2024-05-09T09:22:44.665Z,26.70
2024-05-09T09:27:50.995Z,27.10
2024-05-09T09:32:58.159Z,27.40
2024-05-09T09:38:07.095Z,27.30
2024-05-09T09:43:20.346Z,27.30
2024-05-09T09:48:26.324Z,27.20
2024-05-09T09:53:33.003Z,27.10
2024-05-09T09:58:41.411Z,27.00
2024-05-09T10:03:47.559Z,26.90
2024-05-09T10:08:53.749Z,26.80
2024-05-09T10:14:00.086Z,26.80
2024-05-09T10:19:05.949Z,26.80
2024-05-09T10:24:10.949Z,26.70
2024-05-09T10:29:21.097Z,26.70
2024-05-09T10:34:34.824Z,26.60
2024-05-09T10:39:41.896Z,26.60
2024-05-09T10:44:47.419Z,26.60
2024-05-09T10:49:53.748Z,26.60
2024-05-09T10:55:01.038Z,26.60
2024-05-09T11:00:23.218Z,26.60
2024-05-09T11:05:36.568Z,26.50
2024-05-09T11:10:43.991Z,26.40
2024-05-09T11:15:49.909Z,26.30
2024-05-09T11:20:59.649Z,26.10
2024-05-09T11:26:06.003Z,26.10
2024-05-09T11:31:14.977Z,26.10
2024-05-09T11:36:24.541Z,26.00
2024-05-09T11:41:32.587Z,26.00
2024-05-09T11:46:38.191Z,26.10
2024-05-09T11:51:43.768Z,26.10
2024-05-09T11:56:49.487Z,26.10
2024-05-09T12:01:55.372Z,26.10
2024-05-09T12:07:01.228Z,26.20
2024-05-09T12:12:07.096Z,26.20
2024-05-09T12:17:13.766Z,26.20
2024-05-09T12:22:20.112Z,26.30
2024-05-09T12:27:25.966Z,26.30
2024-05-09T12:32:31.352Z,26.20
2024-05-09T12:37:37.173Z,26.20
2024-05-09T12:42:43.433Z,26.10
2024-05-09T12:47:50.762Z,25.90
2024-05-09T12:52:57.100Z,25.90
2024-05-09T12:58:06.794Z,25.80
2024-05-09T13:03:12.962Z,25.80
2024-05-09T13:08:19.359Z,25.90
2024-05-09T13:13:25.357Z,26.00
2024-05-09T13:18:30.919Z,26.10
2024-05-09T13:23:39.281Z,26.10
2024-05-09T13:28:52.623Z,26.10
2024-05-09T13:34:01.482Z,26.20
2024-05-09T13:39:07.281Z,26.30
2024-05-09T13:44:13.100Z,26.30
2024-05-09T13:49:18.463Z,26.40
2024-05-09T13:54:24.901Z,26.40
2024-05-09T13:59:33.822Z,26.30
2024-05-09T14:04:39.568Z,26.30
2024-05-09T14:09:48.518Z,26.30
2024-05-09T14:14:54.383Z,26.30
2024-05-09T14:20:00.293Z,26.40
2024-05-09T14:25:06.085Z,26.50
2024-05-09T14:30:22.204Z,26.50
2024-05-09T14:35:48.528Z,26.30
2024-05-09T14:40:57.194Z,26.10
2024-05-09T14:46:03.215Z,26.10
2024-05-09T14:51:09.246Z,26.10
2024-05-09T14:56:16.265Z,26.10
2024-05-09T15:01:25.431Z,26.10
2024-05-09T15:06:31.515Z,26.20
2024-05-09T15:11:37.355Z,26.20
2024-05-09T15:16:43.192Z,26.20
2024-05-09T15:21:49.330Z,26.10
2024-05-09T15:26:54.262Z,26.20
2024-05-09T15:32:00.251Z,26.20
2024-05-09T15:37:06.480Z,26.20
2024-05-09T15:42:13.713Z,26.20
2024-05-09T15:47:19.325Z,26.10
2024-05-09T15:52:24.921Z,26.00
2024-05-09T15:57:31.190Z,26.00
2024-05-09T16:02:38.772Z,26.00
2024-05-09T16:07:44.538Z,26.00
2024-05-09T16:12:49.656Z,26.00
2024-05-09T16:17:55.880Z,25.90
2024-05-09T16:23:02.139Z,25.90
2024-05-09T16:28:10.639Z,25.90
2024-05-09T16:33:16.981Z,26.00
2024-05-09T16:38:22.963Z,25.90
2024-05-09T16:43:28.937Z,25.90
2024-05-09T16:48:35.236Z,25.80
2024-05-09T16:53:41.848Z,25.80
2024-05-09T16:58:47.562Z,25.80
2024-05-09T17:03:53.425Z,25.90
2024-05-09T17:09:08.064Z,25.90
2024-05-09T17:14:20.210Z,25.90
2024-05-09T17:19:26.370Z,25.90
2024-05-09T17:24:32.755Z,25.80
2024-05-09T17:29:38.947Z,25.80
2024-05-09T17:34:44.798Z,25.90
2024-05-09T17:39:49.848Z,25.90
2024-05-09T17:44:55.524Z,25.80
2024-05-09T17:50:01.255Z,25.70
2024-05-09T17:55:06.792Z,25.70
2024-05-09T18:00:17.233Z,25.70
2024-05-09T18:05:23.369Z,25.70
2024-05-09T18:10:35.218Z,25.70
2024-05-09T18:15:44.827Z,25.60
2024-05-09T18:20:50.689Z,25.60
2024-05-09T18:25:57.808Z,25.60
2024-05-09T18:31:03.412Z,25.60
2024-05-09T18:36:08.597Z,25.70
2024-05-09T18:41:14.189Z,25.60
2024-05-09T18:46:20.137Z,25.60
2024-05-09T18:51:26.024Z,25.70
2024-05-09T18:56:31.300Z,25.60
2024-05-09T19:01:42.250Z,25.60
2024-05-09T19:06:48.310Z,25.70
2024-05-09T19:11:53.719Z,25.60
2024-05-09T19:16:59.030Z,25.60
2024-05-09T19:22:09.240Z,25.60
2024-05-09T19:27:15.641Z,25.50
2024-05-09T19:32:21.490Z,25.50
2024-05-09T19:37:30.088Z,25.50
2024-05-09T19:42:35.854Z,25.40
2024-05-09T19:47:41.133Z,25.30
2024-05-09T19:52:46.772Z,25.20
2024-05-09T19:57:52.036Z,25.20
2024-05-09T20:02:57.654Z,25.20
2024-05-09T20:08:02.967Z,25.10
2024-05-09T20:13:09.432Z,25.10
2024-05-09T20:18:15.298Z,25.10
2024-05-09T20:23:20.994Z,25.10
2024-05-09T20:28:26.964Z,25.00
2024-05-09T20:33:32.772Z,25.00
2024-05-09T20:38:38.643Z,24.90
2024-05-09T20:43:44.249Z,24.90
2024-05-09T20:48:49.791Z,24.90
2024-05-09T20:53:54.720Z,25.00
2024-05-09T20:59:00.756Z,24.90
2024-05-09T21:04:05.612Z,24.90
2024-05-09T21:09:11.276Z,24.90
2024-05-09T21:14:17.377Z,24.90
2024-05-09T21:19:22.943Z,24.90
2024-05-09T21:24:30.381Z,24.90
2024-05-09T21:29:35.615Z,24.80
2024-05-09T21:34:40.896Z,24.90
2024-05-09T21:39:46.502Z,25.00
2024-05-09T21:44:51.832Z,25.10
2024-05-09T21:49:59.963Z,25.10
2024-05-09T21:55:05.360Z,25.10
2024-05-09T22:00:28.107Z,25.10
2024-05-09T22:05:43.035Z,25.00
2024-05-09T22:10:48.583Z,25.00
2024-05-09T22:15:54.036Z,24.90
2024-05-09T22:20:59.416Z,24.90
2024-05-09T22:26:04.680Z,24.80
2024-05-09T22:31:11.125Z,24.90
2024-05-09T22:36:16.463Z,24.80
2024-05-09T22:41:21.840Z,24.90
2024-05-09T22:46:27.246Z,24.90
2024-05-09T22:51:32.932Z,25.00
2024-05-09T22:56:44.805Z,25.20
2024-05-09T23:01:50.597Z,25.30
2024-05-09T23:06:56.212Z,25.40
2024-05-09T23:12:01.638Z,25.40
2024-05-09T23:17:07.800Z,25.50
2024-05-09T23:22:15.471Z,25.60
2024-05-09T23:27:20.907Z,25.70
2024-05-09T23:32:26.289Z,26.00
2024-05-09T23:37:31.811Z,26.10
2024-05-09T23:42:37.203Z,26.20
2024-05-09T23:47:42.585Z,26.30
2024-05-09T23:52:48.299Z,26.40
2024-05-09T23:57:54.228Z,26.50
